Time;durP1;ratioP1;P1;durP2;ratioP2;P2;SDS_P1;SDS_P2;PMS_P1;PMS_P2;Temp;Humidity;BMP_temperature;BMP_pressure;BME280_temperature;BME280_humidity;BME280_pressure;Samples;Min_cycle;Max_cycle;Signal;HPM_P1;HPM_P2
2022/11/16 00:01:01;;;;;;;25.43;16.63;;;;;;;-143.84;84.92;45231.88;5152294;27;21136;-74
2022/11/16 00:03:29;;;;;;;26.40;17.00;;;;;;;-143.84;85.00;45214.72;5152275;27;20945;-74
2022/11/16 00:05:57;;;;;;;24.53;16.30;;;;;;;-143.84;85.38;45250.91;5152283;27;20489;-75
2022/11/16 00:08:25;;;;;;;27.10;17.63;;;;;;;-143.84;85.66;45209.03;5152028;27;20455;-75
2022/11/16 00:10:52;;;;;;;27.93;17.80;;;;;;;-143.84;85.65;45237.59;5153444;27;20890;-74
2022/11/16 00:13:20;;;;;;;29.07;17.97;;;;;;;-143.84;85.81;45233.78;5155933;27;20455;-75
2022/11/16 00:15:57;;;;;;;25.87;17.77;;;;;;;-143.84;85.57;45224.25;5155882;27;20433;-74
2022/11/16 00:18:25;;;;;;;27.67;18.70;;;;;;;-143.84;86.00;45216.63;5155753;27;20452;-74
2022/11/16 00:20:52;;;;;;;31.40;19.87;;;;;;;-143.84;85.85;45241.41;5155978;27;20529;-74
2022/11/16 00:23:20;;;;;;;33.87;20.80;;;;;;;-143.84;85.93;45239.50;5155946;27;20465;-75
2022/11/16 00:25:47;;;;;;;30.50;21.23;;;;;;;-143.84;85.60;45241.41;5154944;27;20507;-75
2022/11/16 00:28:14;;;;;;;36.10;22.87;;;;;;;-143.84;85.68;45243.31;5155044;27;20444;-74
2022/11/16 00:30:41;;;;;;;36.00;23.87;;;;;;;-143.84;85.22;45243.31;5155133;27;20490;-74
2022/11/16 00:33:13;;;;;;;38.93;23.80;;;;;;;-143.84;85.02;45233.78;5155796;27;20425;-74
2022/11/16 00:35:42;;;;;;;31.17;20.13;;;;;;;-143.84;84.84;45228.06;5155902;27;20505;-74
2022/11/16 00:38:09;;;;;;;34.93;22.70;;;;;;;-143.84;84.65;45231.88;5155452;27;20440;-74
2022/11/16 00:40:37;;;;;;;30.37;20.37;;;;;;;-143.84;84.83;45224.25;5154931;27;20488;-74
2022/11/16 00:43:04;;;;;;;31.37;22.00;;;;;;;-143.84;84.80;45199.50;5155361;27;20447;-74
2022/11/16 00:45:31;;;;;;;26.40;18.90;;;;;;;-143.84;84.55;45224.25;5139713;27;20445;-74
2022/11/16 00:47:58;;;;;;;32.90;20.93;;;;;;;-143.84;84.76;45220.44;5134786;27;20441;-74
2022/11/16 00:50:25;;;;;;;24.83;18.80;;;;;;;-143.84;84.74;45228.06;5134460;27;20550;-74
2022/11/16 00:52:54;;;;;;;34.00;23.50;;;;;;;-143.84;84.75;45245.19;5132725;27;20466;-74
2022/11/16 00:55:22;;;;;;;34.33;22.23;;;;;;;-143.84;84.69;45231.88;5132080;27;20445;-74
2022/11/16 00:57:49;;;;;;;37.37;23.60;;;;;;;-143.84;84.49;45243.31;5133636;27;20432;-75
2022/11/16 01:00:17;;;;;;;34.67;22.93;;;;;;;-143.84;84.45;45250.91;5133942;27;20952;-74
2022/11/16 01:02:44;;;;;;;31.47;21.93;;;;;;;-143.84;84.36;45250.91;5134244;27;20459;-75
2022/11/16 01:05:12;;;;;;;31.23;21.30;;;;;;;-143.84;84.23;45205.22;5134880;27;20471;-74
2022/11/16 01:07:40;;;;;;;30.67;22.80;;;;;;;-143.84;84.11;45224.25;5134200;27;20487;-75
2022/11/16 01:10:13;;;;;;;33.90;23.23;;;;;;;-143.84;84.20;45237.59;5134038;27;21062;-75
2022/11/16 01:12:39;;;;;;;31.30;21.60;;;;;;;-143.84;84.15;45243.31;5134379;27;20498;-74
2022/11/16 01:15:08;;;;;;;29.47;21.23;;;;;;;-143.84;84.14;45224.25;5134754;27;20548;-74
2022/11/16 01:17:35;;;;;;;35.43;21.90;;;;;;;-143.84;84.31;45256.63;5134288;27;21204;-74
2022/11/16 01:20:03;;;;;;;43.97;25.13;;;;;;;-143.84;84.55;45239.50;5133881;27;21127;-75
2022/11/16 01:22:30;;;;;;;35.90;23.67;;;;;;;-143.84;84.63;45199.50;5133938;27;20457;-75
2022/11/16 01:24:57;;;;;;;33.30;24.60;;;;;;;-143.84;84.41;45233.78;5133989;27;20445;-74
2022/11/16 01:27:26;;;;;;;35.30;24.70;;;;;;;-143.84;84.51;45218.53;5134647;27;20429;-74
2022/11/16 01:29:53;;;;;;;39.30;28.00;;;;;;;-143.84;84.23;45243.31;5133979;27;20509;-74
2022/11/16 01:32:21;;;;;;;39.23;25.90;;;;;;;-143.84;84.27;45250.91;5133556;27;20502;-74
2022/11/16 01:34:48;;;;;;;37.00;24.27;;;;;;;-143.84;84.49;45247.09;5133819;27;20433;-74
2022/11/16 01:37:16;;;;;;;37.00;27.93;;;;;;;-143.84;84.36;45256.63;5133800;27;20516;-74
2022/11/16 01:39:44;;;;;;;44.50;27.23;;;;;;;-143.84;84.52;45226.16;5133667;27;20451;-74
2022/11/16 01:42:17;;;;;;;43.40;28.50;;;;;;;-143.84;84.52;45273.78;5133427;27;20485;-75
2022/11/16 01:45:22;;;;;;;47.03;29.40;;;;;;;-143.84;84.86;45224.25;5133848;27;21170;-74
2022/11/16 01:47:49;;;;;;;44.27;28.40;;;;;;;-143.84;84.71;45264.25;5090861;27;20436;-74
2022/11/16 01:50:18;;;;;;;41.57;27.97;;;;;;;-143.84;84.80;45195.69;5133676;27;20460;-74
2022/11/16 01:52:51;;;;;;;47.20;26.90;;;;;;;-143.84;84.79;45237.59;5133517;27;20942;-74
2022/11/16 01:55:19;;;;;;;38.43;26.77;;;;;;;-143.84;84.70;45247.09;5133139;27;20439;-74
2022/11/16 01:57:48;;;;;;;41.40;29.23;;;;;;;-143.84;84.91;45228.06;5133116;27;20479;-74
2022/11/16 02:00:17;;;;;;;45.13;27.43;;;;;;;-143.84;84.94;45243.31;5133492;27;20431;-74
2022/11/16 02:02:46;;;;;;;40.00;27.50;;;;;;;-143.84;85.30;45266.16;5133301;27;20505;-74
2022/11/16 02:05:17;;;;;;;39.70;27.03;;;;;;;-143.84;85.36;45235.69;5133390;27;21018;-74
2022/11/16 02:11:06;;;;;;;41.50;26.10;;;;;;;-143.84;85.29;45214.72;5132452;27;20465;-74
2022/11/16 02:13:42;;;;;;;42.50;27.17;;;;;;;-143.84;85.29;45233.78;5124847;27;20444;-74
2022/11/16 02:16:20;;;;;;;37.30;25.80;;;;;;;-143.84;85.67;45237.59;5132061;27;20480;-74
2022/11/16 02:18:57;;;;;;;45.30;27.10;;;;;;;-143.84;85.57;45249.00;5132313;27;20505;-74
2022/11/16 02:21:43;;;;;;;40.53;26.43;;;;;;;-143.84;85.71;45235.69;5132586;27;20457;-74
2022/11/16 02:24:43;;;;;;;42.03;27.43;;;;;;;-143.84;86.04;45239.50;5132940;27;20429;-74
2022/11/16 02:27:33;;;;;;;36.00;24.43;;;;;;;-143.84;86.19;45231.88;5132249;27;20519;-74
2022/11/16 02:30:03;;;;;;;40.47;27.00;;;;;;;-143.84;86.40;45224.25;5132164;27;20903;-74
2022/11/16 02:32:34;;;;;;;39.77;28.40;;;;;;;-143.84;86.25;45226.16;5132704;27;20518;-74
2022/11/16 02:35:06;;;;;;;43.10;28.43;;;;;;;-143.84;85.95;45273.78;5131758;27;20440;-73
2022/11/16 02:37:38;;;;;;;37.23;27.30;;;;;;;-143.84;85.98;45245.19;5132613;27;20473;-74
2022/11/16 02:40:09;;;;;;;42.40;27.60;;;;;;;-143.84;85.53;45252.81;5131963;27;20462;-74
2022/11/16 02:42:43;;;;;;;35.87;25.80;;;;;;;-143.84;85.88;45233.78;5111652;28;20514;-75
2022/11/16 02:45:17;;;;;;;36.60;26.40;;;;;;;-143.84;85.74;45241.41;5109183;28;20471;-75
2022/11/16 02:47:47;;;;;;;42.77;30.00;;;;;;;-143.84;85.60;45247.09;5111606;28;20827;-75
2022/11/16 02:50:18;;;;;;;44.17;29.33;;;;;;;-143.84;85.37;45268.06;5111493;28;20609;-74
2022/11/16 02:52:46;;;;;;;48.63;27.90;;;;;;;-143.84;85.21;45252.81;5111574;28;20444;-74
2022/11/16 02:55:13;;;;;;;46.33;31.40;;;;;;;-143.84;85.66;45224.25;5111283;28;20473;-74
2022/11/16 02:57:46;;;;;;;45.10;30.50;;;;;;;-143.84;85.32;45228.06;5111513;28;20445;-74
2022/11/16 03:00:20;;;;;;;46.67;30.57;;;;;;;-143.84;85.56;45239.50;5111158;28;20948;-74
2022/11/16 03:02:55;;;;;;;47.33;28.10;;;;;;;-143.84;85.88;45237.59;5108640;28;20453;-74
2022/11/16 03:05:30;;;;;;;51.60;31.53;;;;;;;-143.84;85.82;45245.19;5108729;28;20439;-74
2022/11/16 03:08:06;;;;;;;50.97;30.93;;;;;;;-143.84;85.59;45254.72;5108637;28;20436;-74
2022/11/16 03:13:25;;;;;;;55.47;35.00;;;;;;;-143.84;85.77;45249.00;5110120;28;20800;-74
2022/11/16 03:15:57;;;;;;;51.97;31.63;;;;;;;-143.84;86.04;45268.06;5121575;27;20481;-76
2022/11/16 03:18:28;;;;;;;55.90;32.60;;;;;;;-143.84;86.47;45229.97;5115891;27;20518;-76
2022/11/16 03:21:06;;;;;;;53.90;35.30;;;;;;;-143.84;86.15;45273.78;5129796;27;21071;-76
2022/11/16 03:23:34;;;;;;;63.47;39.13;;;;;;;-143.84;86.03;45262.34;5129768;27;21228;-76
2022/11/16 03:26:07;;;;;;;62.87;38.83;;;;;;;-143.84;85.99;45258.53;5129111;27;20437;-76
2022/11/16 03:28:40;;;;;;;60.10;36.07;;;;;;;-143.84;86.23;45231.88;5129414;27;20436;-76
2022/11/16 03:31:13;;;;;;;62.60;38.13;;;;;;;-143.84;86.01;45229.97;5129153;27;20480;-76
2022/11/16 03:33:46;;;;;;;59.67;35.73;;;;;;;-143.84;85.97;45254.72;5130090;28;20445;-74
2022/11/16 03:36:19;;;;;;;61.17;35.97;;;;;;;-143.84;85.73;45260.44;5130049;28;20992;-74
2022/11/16 03:38:49;;;;;;;54.30;33.90;;;;;;;-143.84;85.46;45260.44;5130004;28;20446;-74
2022/11/16 03:41:18;;;;;;;58.73;34.33;;;;;;;-143.84;85.23;45252.81;5129851;27;20481;-74
2022/11/16 03:43:48;;;;;;;55.60;34.60;;;;;;;-143.84;85.20;45252.81;5129620;28;21318;-74
2022/11/16 03:46:17;;;;;;;46.53;30.07;;;;;;;-143.84;84.65;45239.50;5131851;27;20950;-74
2022/11/16 03:48:45;;;;;;;52.77;31.53;;;;;;;-143.84;84.81;45235.69;5134259;27;20826;-74
2022/11/16 03:51:13;;;;;;;57.00;32.07;;;;;;;-143.84;84.79;45237.59;5134038;27;20537;-74
2022/11/16 03:53:40;;;;;;;51.53;34.30;;;;;;;-143.84;84.64;45224.25;5133886;27;20502;-74
2022/11/16 03:56:07;;;;;;;52.37;32.20;;;;;;;-143.84;85.00;45231.88;5133978;27;20934;-74
2022/11/16 03:58:34;;;;;;;49.57;30.80;;;;;;;-143.84;84.16;45250.91;5133955;27;20443;-74
2022/11/16 04:01:03;;;;;;;46.70;26.90;;;;;;;-143.84;84.03;45249.00;5134017;27;20432;-74
2022/11/16 04:03:31;;;;;;;47.60;29.23;;;;;;;-143.84;84.41;45271.88;5133682;27;21372;-74
2022/11/16 04:25:34;;;;;;;38.87;26.57;;;;;;;-143.84;83.00;45264.25;5112733;28;20518;-74
2022/11/16 04:28:15;;;;;;;36.93;25.83;;;;;;;-143.84;83.55;45239.50;5111182;27;20441;-74
2022/11/16 04:39:01;;;;;;;70.03;27.33;;;;;;;-143.84;85.03;45241.41;5112460;28;20428;-74
2022/11/16 04:44:14;;;;;;;43.00;25.90;;;;;;;-143.84;85.56;45247.09;5153846;27;20418;-74
2022/11/16 04:49:26;;;;;;;46.03;25.27;;;;;;;-143.84;85.81;45243.31;5152610;27;20410;-75
2022/11/16 04:51:54;;;;;;;37.53;25.73;;;;;;;-143.84;85.69;45243.31;5154095;27;20543;-75
2022/11/16 04:54:21;;;;;;;42.43;27.03;;;;;;;-143.84;85.84;45239.50;5154037;27;20844;-74
2022/11/16 04:56:49;;;;;;;47.20;25.53;;;;;;;-143.84;85.74;45264.25;5152869;27;20504;-75
2022/11/16 04:59:16;;;;;;;35.33;24.37;;;;;;;-143.84;86.14;45256.63;5153730;27;20488;-74
2022/11/16 05:04:27;;;;;;;40.60;23.80;;;;;;;-143.84;86.42;45245.19;5152954;27;20429;-74
2022/11/16 05:06:56;;;;;;;37.03;23.63;;;;;;;-143.84;85.79;45245.19;5132550;27;20440;-74
2022/11/16 05:09:23;;;;;;;34.27;23.67;;;;;;;-143.84;85.95;45233.78;5115163;27;21043;-74
2022/11/16 05:11:50;;;;;;;36.47;24.80;;;;;;;-143.84;86.34;45243.31;5110864;28;20471;-74
2022/11/16 05:14:17;;;;;;;43.33;26.83;;;;;;;-143.84;85.77;45243.31;5111096;28;20964;-74
2022/11/16 05:16:44;;;;;;;44.50;27.40;;;;;;;-143.84;85.69;45268.06;5111527;28;20474;-74
2022/11/16 05:21:58;;;;;;;38.97;24.30;;;;;;;-143.84;85.64;45235.69;5111883;28;20429;-74
2022/11/16 05:24:34;;;;;;;39.17;23.50;;;;;;;-143.84;85.71;45249.00;5111674;28;20446;-74
2022/11/16 05:27:03;;;;;;;33.73;23.30;;;;;;;-143.84;85.46;45245.19;5111916;28;20514;-74
2022/11/16 05:29:31;;;;;;;36.60;22.50;;;;;;;-143.84;85.58;45247.09;5112080;28;20444;-74
2022/11/16 05:31:58;;;;;;;37.07;23.80;;;;;;;-143.84;85.27;45247.09;5111495;28;20556;-75
2022/11/16 05:34:25;;;;;;;37.83;21.57;;;;;;;-143.84;85.20;45228.06;5110953;28;20534;-75
2022/11/16 05:36:53;;;;;;;37.20;23.20;;;;;;;-143.84;85.44;45224.25;5111425;28;20851;-74
2022/11/16 05:39:21;;;;;;;39.23;24.77;;;;;;;-143.84;85.79;45220.44;5122330;27;20443;-74
2022/11/16 05:41:49;;;;;;;37.70;22.30;;;;;;;-143.84;85.54;45237.59;5131251;27;21030;-74
2022/11/16 05:44:17;;;;;;;39.97;25.33;;;;;;;-143.84;85.74;45231.88;5132000;27;20797;-74
2022/11/16 05:46:45;;;;;;;43.00;24.37;;;;;;;-143.84;85.75;45245.19;5132099;27;20448;-74
2022/11/16 05:49:12;;;;;;;45.70;25.90;;;;;;;-143.84;85.20;45233.78;5132283;27;20485;-74
2022/11/16 05:51:41;;;;;;;39.23;22.90;;;;;;;-143.84;84.79;45220.44;5131599;27;21014;-74
2022/11/16 05:54:08;;;;;;;35.80;23.03;;;;;;;-143.84;84.62;45222.34;5130879;27;20446;-74
2022/11/16 05:56:37;;;;;;;39.07;24.83;;;;;;;-143.84;84.22;45239.50;5131354;27;20503;-74
2022/11/16 05:59:04;;;;;;;40.93;24.13;;;;;;;-143.84;83.78;45250.91;5131568;27;20448;-74
2022/11/16 06:01:31;;;;;;;37.83;21.10;;;;;;;-143.84;83.04;45237.59;5131432;27;20450;-74
2022/11/16 06:03:59;;;;;;;34.03;22.47;;;;;;;-143.84;82.81;45262.34;5131473;27;20432;-74
2022/11/16 06:06:27;;;;;;;33.77;21.30;;;;;;;-143.84;82.32;45231.88;5130534;27;20448;-74
2022/11/16 06:08:54;;;;;;;36.07;23.03;;;;;;;-143.84;82.31;45254.72;5130051;27;20501;-75
2022/11/16 06:11:21;;;;;;;39.40;23.73;;;;;;;-143.84;82.12;45224.25;5131225;27;20530;-74
2022/11/16 06:13:50;;;;;;;45.83;22.80;;;;;;;-143.84;80.74;45214.72;5131399;27;20445;-75
2022/11/16 06:16:17;;;;;;;34.57;22.10;;;;;;;-143.84;79.06;45216.63;5131361;27;20449;-74
2022/11/16 06:18:46;;;;;;;39.90;22.20;;;;;;;-143.84;78.15;45235.69;5131087;27;20449;-75
2022/11/16 06:21:14;;;;;;;33.43;21.23;;;;;;;-143.84;76.72;45226.16;5131190;27;20561;-75
2022/11/16 06:23:42;;;;;;;34.33;22.67;;;;;;;-143.84;75.13;45231.88;5130940;27;20442;-75
2022/11/16 06:26:09;;;;;;;36.10;23.67;;;;;;;-143.84;75.25;45197.59;5130992;27;20433;-75
2022/11/16 06:28:37;;;;;;;31.63;21.70;;;;;;;-143.84;74.85;45218.53;5130764;27;20453;-74
2022/11/16 06:31:05;;;;;;;32.73;21.23;;;;;;;-143.84;73.58;45226.16;5130926;27;20656;-74
2022/11/16 06:33:33;;;;;;;34.37;22.00;;;;;;;-143.84;73.50;45231.88;5130693;27;20450;-75
2022/11/16 06:36:00;;;;;;;34.43;22.67;;;;;;;-143.84;73.44;45239.50;5130799;27;20438;-75
2022/11/16 06:38:28;;;;;;;35.40;22.73;;;;;;;-143.84;72.98;45228.06;5131045;27;20489;-75
2022/11/16 06:40:57;;;;;;;45.00;21.33;;;;;;;-143.84;69.11;45203.31;5130766;27;20474;-75
2022/11/16 06:43:25;;;;;;;27.63;18.87;;;;;;;-143.84;68.22;45209.03;5130497;27;20480;-75
2022/11/16 06:45:53;;;;;;;26.50;18.10;;;;;;;-143.84;65.47;45197.59;5130603;27;20447;-75
2022/11/16 06:48:22;;;;;;;24.90;16.80;;;;;;;-143.84;65.56;45220.44;5131075;27;20459;-75
2022/11/16 06:50:50;;;;;;;32.47;21.10;;;;;;;-143.84;64.74;45209.03;5130465;27;20861;-75
2022/11/16 06:53:19;;;;;;;40.83;24.13;;;;;;;-143.84;65.94;45199.50;5130691;27;20492;-75
2022/11/16 06:55:46;;;;;;;39.27;23.77;;;;;;;-143.84;64.76;45207.13;5130710;27;20490;-75
2022/11/16 06:58:13;;;;;;;44.30;25.40;;;;;;;-143.84;65.24;45214.72;5130524;27;20441;-75
2022/11/16 07:00:40;;;;;;;39.57;25.37;;;;;;;-143.84;64.96;45193.78;5130373;27;20495;-76
2022/11/16 07:03:07;;;;;;;39.53;23.17;;;;;;;-143.84;65.65;45210.94;5130402;27;20806;-75
2022/11/16 07:05:39;;;;;;;33.70;23.57;;;;;;;-143.84;65.26;45201.41;5130296;27;20495;-75
2022/11/16 07:08:07;;;;;;;34.20;22.10;;;;;;;-143.84;64.11;45205.22;5130212;27;20525;-76
2022/11/16 07:10:34;;;;;;;31.40;21.07;;;;;;;-143.84;63.54;45233.78;5130344;27;20433;-76
2022/11/16 07:13:03;;;;;;;32.87;19.80;;;;;;;-143.84;62.99;45174.75;5130150;27;20849;-75
2022/11/16 07:15:30;;;;;;;26.77;18.30;;;;;;;-143.84;59.07;45197.59;5130229;27;20564;-75
2022/11/16 07:18:02;;;;;;;29.13;19.43;;;;;;;-143.84;58.86;45165.22;5130415;27;20463;-75
2022/11/16 07:20:29;;;;;;;25.23;17.40;;;;;;;-143.84;58.12;45186.16;5129052;27;20868;-76
2022/11/16 07:22:59;;;;;;;34.70;19.30;;;;;;;-143.84;58.21;45184.25;5128806;27;20450;-76
2022/11/16 07:25:27;;;;;;;24.70;16.10;;;;;;;-143.84;53.90;45174.75;5129201;27;20534;-76
2022/11/16 07:27:54;;;;;;;26.43;17.00;;;;;;;-143.84;53.70;45184.25;5129356;27;20439;-76
2022/11/16 07:30:21;;;;;;;21.27;15.50;;;;;;;-143.84;51.60;45165.22;5129489;27;21269;-76
2022/11/16 07:32:48;;;;;;;19.80;15.70;;;;;;;-143.84;50.13;45167.13;5129481;27;20470;-76
2022/11/16 07:35:15;;;;;;;19.77;15.77;;;;;;;-143.84;50.27;45201.41;5129534;28;20434;-76
2022/11/16 07:37:42;;;;;;;29.93;16.83;;;;;;;-143.84;47.48;45172.84;5129660;28;20940;-76
2022/11/16 07:40:11;;;;;;;25.60;18.10;;;;;;;-143.84;48.77;45140.47;5129393;28;20437;-76
2022/11/16 07:42:39;;;;;;;22.53;17.03;;;;;;;-143.84;47.31;45170.94;5129689;28;20500;-76
2022/11/16 07:45:07;;;;;;;24.27;16.07;;;;;;;-143.84;47.10;45184.25;5129367;28;20437;-75
2022/11/16 07:47:37;;;;;;;24.50;17.00;;;;;;;-143.84;46.34;45153.81;5129872;28;20953;-76
2022/11/16 07:50:05;;;;;;;22.77;15.90;;;;;;;-143.84;45.00;45169.03;5129773;28;20509;-75
2022/11/16 07:52:32;;;;;;;21.30;15.87;;;;;;;-143.84;44.36;45148.09;5129611;28;20489;-75
2022/11/16 07:55:00;;;;;;;18.00;15.07;;;;;;;-143.84;44.02;45142.38;5129727;28;20435;-76
2022/11/16 07:57:29;;;;;;;23.00;17.13;;;;;;;-143.84;43.48;45132.84;5129635;28;20437;-75
2022/11/16 07:59:56;;;;;;;21.10;16.50;;;;;;;-143.84;43.32;45153.81;5129640;28;20452;-75
2022/11/16 08:02:23;;;;;;;21.30;15.03;;;;;;;-143.84;43.11;45142.38;5129780;28;20472;-75
2022/11/16 08:04:51;;;;;;;19.90;16.37;;;;;;;-143.84;43.65;45167.13;5129382;28;20883;-75
2022/11/16 08:07:18;;;;;;;23.60;16.90;;;;;;;-143.84;43.29;45169.03;5129474;28;20442;-73
2022/11/16 08:09:48;;;;;;;20.37;16.00;;;;;;;-143.84;42.36;45170.94;5130072;28;20445;-75
2022/11/16 08:12:16;;;;;;;16.10;13.00;;;;;;;-143.84;42.64;45138.56;5129924;28;20476;-73
2022/11/16 08:14:44;;;;;;;23.60;12.80;;;;;;;-143.84;42.28;45144.28;5129312;28;20441;-72
2022/11/16 08:17:12;;;;;;;16.73;12.80;;;;;;;-143.84;41.91;45148.09;5129423;28;20502;-75
2022/11/16 08:19:41;;;;;;;15.00;11.10;;;;;;;-143.84;41.39;45159.50;5113657;28;20450;-75
2022/11/16 08:22:12;;;;;;;16.40;9.10;;;;;;;-143.84;40.71;45150.00;5109169;28;20448;-75
2022/11/16 08:24:41;;;;;;;17.70;12.40;;;;;;;-143.84;41.37;45155.69;5108748;28;20437;-75
2022/11/16 08:27:09;;;;;;;21.00;13.30;;;;;;;-143.84;42.51;45159.50;5107174;28;20476;-75
2022/11/16 08:29:36;;;;;;;18.17;12.40;;;;;;;-143.84;41.74;45134.75;5109077;28;20499;-74
2022/11/16 08:32:05;;;;;;;15.00;12.40;;;;;;;-143.84;42.19;45155.69;5111119;28;20502;-75
2022/11/16 08:34:34;;;;;;;23.87;17.10;;;;;;;-143.84;42.85;45144.28;5105839;28;20490;-74
2022/11/16 08:37:01;;;;;;;15.13;11.80;;;;;;;-143.84;42.26;45157.59;5113910;28;21328;-74
2022/11/16 08:39:28;;;;;;;19.47;13.77;;;;;;;-143.84;42.19;45123.34;5113388;28;20476;-75
2022/11/16 08:41:55;;;;;;;22.17;16.17;;;;;;;-143.84;43.09;45138.56;5126974;27;20470;-75
2022/11/16 08:44:23;;;;;;;37.40;23.13;;;;;;;-143.84;45.90;45144.28;5131474;27;20453;-75
2022/11/16 08:46:50;;;;;;;22.70;15.70;;;;;;;-143.84;43.88;45142.38;5131812;27;20425;-73
2022/11/16 08:49:19;;;;;;;20.17;15.30;;;;;;;-143.84;42.95;45127.13;5130389;27;20475;-75
2022/11/16 08:51:46;;;;;;;25.70;18.53;;;;;;;-143.84;44.10;45146.19;5130952;27;20470;-75
2022/11/16 08:54:13;;;;;;;20.00;13.70;;;;;;;-143.84;42.71;45146.19;5131644;27;20433;-75
2022/11/16 08:56:40;;;;;;;22.80;13.90;;;;;;;-143.84;42.16;45132.84;5132858;27;20982;-76
2022/11/16 08:59:07;;;;;;;23.33;14.20;;;;;;;-143.84;41.20;45134.75;5132613;27;20448;-75
2022/11/16 09:01:34;;;;;;;20.13;15.10;;;;;;;-143.84;41.25;45140.47;5132560;27;20510;-75
2022/11/16 09:04:02;;;;;;;27.30;15.33;;;;;;;-143.84;41.59;45148.09;5132937;27;20438;-75
2022/11/16 09:06:30;;;;;;;22.27;16.47;;;;;;;-143.84;41.25;45157.59;5134286;27;20429;-75
2022/11/16 09:08:58;;;;;;;19.77;15.00;;;;;;;-143.84;41.74;45153.81;5133236;27;20439;-75
2022/11/16 09:11:25;;;;;;;18.13;15.00;;;;;;;-143.84;41.77;45138.56;5133326;27;20912;-73
2022/11/16 09:13:54;;;;;;;22.07;17.73;;;;;;;-143.84;43.28;45157.59;5132249;27;20489;-73
2022/11/16 09:16:22;;;;;;;21.50;16.03;;;;;;;-143.84;44.00;45136.66;5132471;27;20438;-75
2022/11/16 09:18:51;;;;;;;27.97;18.60;;;;;;;-143.84;44.37;45174.75;5133164;27;20908;-75
2022/11/16 09:21:19;;;;;;;21.70;17.27;;;;;;;-143.84;45.11;45159.50;5133250;27;20444;-75
2022/11/16 09:23:48;;;;;;;20.27;14.10;;;;;;;-143.84;44.87;45159.50;5132680;27;20442;-73
2022/11/16 09:26:19;;;;;;;19.73;15.20;;;;;;;-143.84;45.67;45150.00;5132238;27;20984;-75
2022/11/16 09:28:46;;;;;;;24.93;15.10;;;;;;;-143.84;46.26;45170.94;5132905;27;20446;-76
2022/11/16 09:31:17;;;;;;;22.10;15.73;;;;;;;-143.84;45.92;45178.56;5132153;27;20443;-74
2022/11/16 09:33:46;;;;;;;23.20;17.30;;;;;;;-143.84;47.02;45150.00;5131128;27;20455;-73
2022/11/16 09:36:14;;;;;;;19.33;15.27;;;;;;;-143.84;45.89;45184.25;5131888;27;20436;-76
2022/11/16 09:38:44;;;;;;;22.70;15.80;;;;;;;-143.84;45.57;45140.47;5131304;27;20497;-75
2022/11/16 09:41:30;;;;;;;30.63;14.87;;;;;;;-143.84;45.47;45153.81;5131663;27;21046;-77
2022/11/16 09:44:06;;;;;;;25.80;16.97;;;;;;;-143.84;45.76;45144.28;5132340;27;20777;-73
2022/11/16 09:46:38;;;;;;;29.20;15.97;;;;;;;-143.84;45.79;45159.50;5132126;27;20437;-73
2022/11/16 09:49:11;;;;;;;25.30;17.27;;;;;;;-143.84;45.92;45151.91;5132242;27;20445;-73
2022/11/16 09:51:42;;;;;;;18.13;14.30;;;;;;;-143.84;44.71;45140.47;5132267;27;20478;-73
2022/11/16 09:54:14;;;;;;;21.37;14.93;;;;;;;-143.84;45.09;45138.56;5132777;27;20923;-75
2022/11/16 09:56:43;;;;;;;22.43;16.80;;;;;;;-143.84;44.43;45153.81;5133554;27;20455;-76
2022/11/16 09:59:20;;;;;;;18.53;14.50;;;;;;;-143.84;44.62;45146.19;5132291;27;20449;-77
2022/11/16 10:01:52;;;;;;;24.90;16.27;;;;;;;-143.84;45.22;45142.38;5132556;27;20444;-73
2022/11/16 10:04:24;;;;;;;29.70;17.00;;;;;;;-143.84;45.76;45117.63;5131737;27;20441;-73
2022/11/16 10:06:57;;;;;;;32.07;16.80;;;;;;;-143.84;44.36;45125.22;5131678;27;20442;-73
2022/11/16 10:09:26;;;;;;;21.60;14.30;;;;;;;-143.84;43.83;45136.66;5132607;27;20442;-73
2022/11/16 10:12:15;;;;;;;22.73;15.37;;;;;;;-143.84;44.24;45142.38;5132352;27;20481;-76
2022/11/16 10:15:00;;;;;;;22.80;16.27;;;;;;;-143.84;44.44;45153.81;5131134;27;20442;-75
2022/11/16 10:17:38;;;;;;;23.60;15.50;;;;;;;-143.84;44.15;45140.47;5132104;27;20498;-75
2022/11/16 10:20:29;;;;;;;23.27;16.40;;;;;;;-143.84;43.71;45132.84;5131841;27;20438;-73
2022/11/16 10:23:06;;;;;;;21.07;15.87;;;;;;;-143.84;43.83;45161.41;5114892;27;20442;-73
2022/11/16 10:25:39;;;;;;;24.33;15.47;;;;;;;-143.84;43.87;45140.47;5131814;27;20434;-75
2022/11/16 10:28:41;;;;;;;32.67;19.63;;;;;;;-143.84;44.62;45130.94;5123672;27;20542;-75
2022/11/16 10:31:22;;;;;;;32.13;22.00;;;;;;;-143.84;44.50;45121.44;5097402;27;20445;-75
2022/11/16 10:33:53;;;;;;;38.10;22.60;;;;;;;-143.84;46.01;45157.59;5131267;27;20539;-76
2022/11/16 10:36:26;;;;;;;35.97;24.47;;;;;;;-143.84;45.26;45136.66;5131852;27;20442;-76
2022/11/16 10:38:56;;;;;;;30.77;20.87;;;;;;;-143.84;45.43;45144.28;5131851;27;20461;-73
2022/11/16 10:41:31;;;;;;;37.30;22.17;;;;;;;-143.84;44.73;45132.84;5131128;27;20492;-74
2022/11/16 10:44:09;;;;;;;29.53;17.57;;;;;;;-143.84;45.09;45148.09;5131102;27;20453;-73
2022/11/16 10:46:41;;;;;;;26.97;20.27;;;;;;;-143.84;44.64;45148.09;5131218;27;20452;-73
2022/11/16 10:49:16;;;;;;;34.70;23.30;;;;;;;-143.84;46.46;45136.66;5131363;27;20442;-74
2022/11/16 10:51:43;;;;;;;36.43;23.00;;;;;;;-143.84;46.40;45144.28;5131131;27;20438;-75
2022/11/16 10:54:14;;;;;;;34.93;24.17;;;;;;;-143.84;47.12;45132.84;5130148;27;20957;-76
2022/11/16 10:56:44;;;;;;;36.30;21.17;;;;;;;-143.84;46.92;45130.94;5131981;27;20950;-75
2022/11/16 10:59:14;;;;;;;32.83;21.70;;;;;;;-143.84;47.88;45151.91;5131484;27;20437;-76
2022/11/16 11:01:45;;;;;;;32.37;21.37;;;;;;;-143.84;47.06;45136.66;5131532;27;20446;-76
2022/11/16 11:04:18;;;;;;;30.23;20.40;;;;;;;-143.84;46.69;45113.81;5131456;27;20532;-75
2022/11/16 11:06:48;;;;;;;30.23;19.27;;;;;;;-143.84;47.09;45155.69;5131035;27;20953;-74
2022/11/16 11:09:26;;;;;;;18.63;14.03;;;;;;;-143.84;46.36;45132.84;5131256;27;20510;-76
2022/11/16 11:15:05;;;;;;;14.20;12.43;;;;;;;-143.84;46.57;45121.44;5131432;27;20428;-76
2022/11/16 11:17:34;;;;;;;23.40;13.57;;;;;;;-143.84;47.41;45161.41;5130925;27;20450;-75
2022/11/16 11:20:04;;;;;;;17.20;12.83;;;;;;;-143.84;47.52;45136.66;5131675;27;20440;-74
2022/11/16 11:22:33;;;;;;;18.50;13.70;;;;;;;-143.84;46.96;45134.75;5129541;27;20447;-75
2022/11/16 11:25:03;;;;;;;20.20;13.50;;;;;;;-143.84;47.45;45159.50;5129460;27;20869;-75
2022/11/16 11:27:34;;;;;;;21.70;15.50;;;;;;;-143.84;47.73;45174.75;5130362;27;20438;-77
2022/11/16 11:30:04;;;;;;;16.10;13.23;;;;;;;-143.84;48.53;45138.56;5131080;27;20447;-74
2022/11/16 11:32:40;;;;;;;20.93;13.90;;;;;;;-143.84;48.78;45155.69;5130540;27;20519;-73
2022/11/16 11:35:23;;;;;;;19.17;13.43;;;;;;;-143.84;48.78;45119.53;5130299;27;20452;-74
2022/11/16 11:37:53;;;;;;;20.00;14.60;;;;;;;-143.84;49.05;45155.69;5130234;28;20475;-75
2022/11/16 11:40:23;;;;;;;17.80;13.80;;;;;;;-143.84;49.13;45151.91;5128505;28;20504;-77
2022/11/16 11:42:57;;;;;;;26.67;13.50;;;;;;;-143.84;49.65;45155.69;5129828;28;20446;-74
2022/11/16 11:45:33;;;;;;;18.03;14.00;;;;;;;-143.84;49.13;45157.59;5131370;28;20841;-74
2022/11/16 11:48:02;;;;;;;17.60;13.80;;;;;;;-143.84;49.72;45148.09;5131613;28;20436;-75
2022/11/16 11:50:42;;;;;;;29.00;15.50;;;;;;;-143.84;50.05;45136.66;5128875;28;20442;-75
2022/11/16 11:53:21;;;;;;;25.13;15.50;;;;;;;-143.84;50.45;45138.56;5128759;28;20859;-77
2022/11/16 11:55:55;;;;;;;24.27;14.03;;;;;;;-143.84;50.67;45169.03;5128896;28;20512;-75
2022/11/16 11:58:26;;;;;;;24.20;14.93;;;;;;;-143.84;50.45;45129.03;5128318;28;20448;-76
2022/11/16 12:01:13;;;;;;;28.43;14.57;;;;;;;-143.84;51.96;45151.91;5128823;28;20438;-74
2022/11/16 12:04:16;;;;;;;22.63;13.77;;;;;;;-143.84;51.80;45153.81;5116829;28;20837;-75